TCGUK LTBU-LTBA
Flight info
| Callsign | TCGUK |
|---|---|
| Flight time | N/A |
| Altitude | 3000 |
| Route | / |
| Aircraft | C152/L-S/C |
Departure
| Time | 2026-04-16 19:15 |
|---|---|
| Airport | Tekirdağ Çorlu Airport (LTBU) |
Arrival
| Time | N/A |
|---|---|
| Airport | İstanbul Atatürk Airport (LTBA) |
| Time | Latitude | Longitude | Altitude | Speed | Heading |
|---|---|---|---|---|---|
| 2026-04-16 18:54 | 41.12752 | 27.90846 | 477 ft | 0 kts | 140° |
| 2026-04-16 19:05 | 41.12805 | 27.90919 | 479 ft | 0 kts | 137° |
| 2026-04-16 19:09 | 41.12798 | 27.90938 | 479 ft | 5 kts | 50° |
| 2026-04-16 19:09 | 41.12817 | 27.90910 | 479 ft | 6 kts | 298° |
| 2026-04-16 19:09 | 41.12848 | 27.90870 | 478 ft | 8 kts | 319° |
| 2026-04-16 19:10 | 41.12851 | 27.90811 | 478 ft | 9 kts | 231° |
| 2026-04-16 19:10 | 41.12808 | 27.90742 | 476 ft | 11 kts | 249° |
| 2026-04-16 19:10 | 41.12815 | 27.90716 | 476 ft | 4 kts | 327° |
| 2026-04-16 19:10 | 41.12835 | 27.90694 | 476 ft | 4 kts | 318° |
| 2026-04-16 19:11 | 41.12845 | 27.90682 | 476 ft | 0 kts | 320° |
| 2026-04-16 19:12 | 41.12846 | 27.90681 | 476 ft | 1 kts | 321° |
| 2026-04-16 19:12 | 41.12888 | 27.90634 | 475 ft | 10 kts | 320° |
| 2026-04-16 19:13 | 41.12949 | 27.90581 | 474 ft | 10 kts | 356° |
| 2026-04-16 19:13 | 41.12974 | 27.90594 | 475 ft | 0 kts | 52° |
| 2026-04-16 19:14 | 41.13020 | 27.90663 | 477 ft | 33 kts | 46° |
| 2026-04-16 19:14 | 41.13265 | 27.91038 | 518 ft | 66 kts | 47° |
| 2026-04-16 19:14 | 41.13561 | 27.91498 | 676 ft | 68 kts | 47° |
| 2026-04-16 19:14 | 41.13883 | 27.91977 | 831 ft | 72 kts | 45° |
| 2026-04-16 19:15 | 41.14209 | 27.92483 | 989 ft | 72 kts | 47° |
| 2026-04-16 19:15 | 41.14528 | 27.92990 | 1157 ft | 71 kts | 46° |
| 2026-04-16 19:15 | 41.14701 | 27.93549 | 1377 ft | 74 kts | 97° |
| 2026-04-16 19:15 | 41.14242 | 27.94096 | 1401 ft | 101 kts | 140° |
| 2026-04-16 19:16 | 41.13615 | 27.94498 | 1512 ft | 106 kts | 171° |
| 2026-04-16 19:16 | 41.13013 | 27.94041 | 1572 ft | 108 kts | 239° |
| 2026-04-16 19:16 | 41.12605 | 27.93237 | 1680 ft | 102 kts | 236° |
| 2026-04-16 19:16 | 41.12104 | 27.92574 | 1777 ft | 100 kts | 223° |
| 2026-04-16 19:17 | 41.11544 | 27.92013 | 1902 ft | 99 kts | 210° |
| 2026-04-16 19:17 | 41.10894 | 27.91692 | 2026 ft | 101 kts | 188° |
| 2026-04-16 19:17 | 41.10221 | 27.91627 | 2195 ft | 94 kts | 172° |
| 2026-04-16 19:17 | 41.09581 | 27.91704 | 2323 ft | 92 kts | 161° |
| 2026-04-16 19:18 | 41.09047 | 27.92140 | 2381 ft | 89 kts | 124° |
| 2026-04-16 19:18 | 41.08733 | 27.92791 | 2508 ft | 81 kts | 109° |
| 2026-04-16 19:18 | 41.08504 | 27.93479 | 2604 ft | 82 kts | 108° |
| 2026-04-16 19:18 | 41.08264 | 27.94163 | 2733 ft | 82 kts | 109° |
| 2026-04-16 19:19 | 41.08010 | 27.94815 | 2874 ft | 76 kts | 111° |
| 2026-04-16 19:19 | 41.07769 | 27.95437 | 3025 ft | 73 kts | 109° |
| 2026-04-16 19:19 | 41.07556 | 27.96030 | 3209 ft | 71 kts | 109° |
| 2026-04-16 19:19 | 41.07355 | 27.96648 | 3331 ft | 75 kts | 105° |
| 2026-04-16 19:20 | 41.07176 | 27.97365 | 3291 ft | 90 kts | 101° |
| 2026-04-16 19:20 | 41.07009 | 27.98173 | 3282 ft | 89 kts | 101° |
| 2026-04-16 19:20 | 41.06825 | 27.98897 | 3202 ft | 72 kts | 105° |
| 2026-04-16 19:20 | 41.06646 | 27.99554 | 3170 ft | 80 kts | 103° |
| 2026-04-16 19:21 | 41.06477 | 28.00258 | 3276 ft | 81 kts | 102° |
| 2026-04-16 19:21 | 41.06316 | 28.00994 | 3286 ft | 87 kts | 100° |
| 2026-04-16 19:21 | 41.06191 | 28.01778 | 3258 ft | 90 kts | 97° |
| 2026-04-16 19:21 | 41.06087 | 28.02590 | 3279 ft | 88 kts | 96° |
| 2026-04-16 19:22 | 41.05994 | 28.03402 | 3262 ft | 88 kts | 95° |
| 2026-04-16 19:22 | 41.05898 | 28.04200 | 3271 ft | 88 kts | 97° |
| 2026-04-16 19:22 | 41.05784 | 28.04977 | 3279 ft | 86 kts | 99° |
| 2026-04-16 19:22 | 41.05663 | 28.05718 | 3348 ft | 82 kts | 99° |
| 2026-04-16 19:23 | 41.05561 | 28.06477 | 3391 ft | 83 kts | 96° |
| 2026-04-16 19:23 | 41.05432 | 28.07205 | 3308 ft | 74 kts | 100° |
| 2026-04-16 19:23 | 41.05319 | 28.07835 | 3201 ft | 70 kts | 100° |
| 2026-04-16 19:23 | 41.05179 | 28.08485 | 3171 ft | 77 kts | 103° |
| 2026-04-16 19:24 | 41.05006 | 28.09193 | 3123 ft | 82 kts | 105° |
| 2026-04-16 19:24 | 41.04782 | 28.09889 | 3082 ft | 81 kts | 101° |
| 2026-04-16 19:24 | 41.04655 | 28.10644 | 3037 ft | 88 kts | 98° |
| 2026-04-16 19:24 | 41.04518 | 28.11436 | 3051 ft | 87 kts | 102° |
| 2026-04-16 19:25 | 41.04342 | 28.12218 | 3046 ft | 89 kts | 104° |
| 2026-04-16 19:25 | 41.04162 | 28.12985 | 3058 ft | 87 kts | 103° |
| 2026-04-16 19:25 | 41.03986 | 28.13753 | 3076 ft | 86 kts | 102° |
| 2026-04-16 19:25 | 41.03826 | 28.14506 | 3142 ft | 83 kts | 101° |
| 2026-04-16 19:26 | 41.03692 | 28.15251 | 3200 ft | 83 kts | 98° |
| 2026-04-16 19:26 | 41.03592 | 28.15980 | 3276 ft | 79 kts | 96° |
| 2026-04-16 19:26 | 41.03541 | 28.16709 | 3344 ft | 80 kts | 89° |
| 2026-04-16 19:26 | 41.03579 | 28.17452 | 3351 ft | 84 kts | 82° |
| 2026-04-16 19:27 | 41.03687 | 28.18235 | 3331 ft | 86 kts | 73° |
| 2026-04-16 19:27 | 41.03902 | 28.18975 | 3333 ft | 86 kts | 67° |
| 2026-04-16 19:27 | 41.04163 | 28.19694 | 3317 ft | 88 kts | 63° |
| 2026-04-16 19:27 | 41.04466 | 28.20393 | 3316 ft | 88 kts | 60° |
| 2026-04-16 19:28 | 41.04796 | 28.21072 | 3302 ft | 89 kts | 57° |
| 2026-04-16 19:28 | 41.05143 | 28.21730 | 3324 ft | 85 kts | 57° |
| 2026-04-16 19:28 | 41.05471 | 28.22387 | 3325 ft | 85 kts | 64° |
| 2026-04-16 19:28 | 41.05610 | 28.23138 | 3320 ft | 88 kts | 86° |
| 2026-04-16 19:29 | 41.05521 | 28.23944 | 3305 ft | 89 kts | 102° |
| 2026-04-16 19:29 | 41.05373 | 28.24720 | 3332 ft | 85 kts | 96° |
| 2026-04-16 19:29 | 41.05289 | 28.25513 | 3282 ft | 89 kts | 93° |
| 2026-04-16 19:29 | 41.05215 | 28.26307 | 3295 ft | 85 kts | 96° |
| 2026-04-16 19:30 | 41.05087 | 28.27077 | 3295 ft | 85 kts | 100° |
| 2026-04-16 19:30 | 41.04957 | 28.27817 | 3326 ft | 84 kts | 97° |
| 2026-04-16 19:30 | 41.04856 | 28.28588 | 3315 ft | 85 kts | 96° |
| 2026-04-16 19:30 | 41.04771 | 28.29388 | 3283 ft | 89 kts | 96° |
| 2026-04-16 19:31 | 41.04684 | 28.30216 | 3227 ft | 91 kts | 93° |
| 2026-04-16 19:31 | 41.04641 | 28.31052 | 3178 ft | 91 kts | 91° |
| 2026-04-16 19:31 | 41.04569 | 28.31877 | 3131 ft | 89 kts | 99° |
| 2026-04-16 19:31 | 41.04432 | 28.32670 | 3147 ft | 86 kts | 101° |
| 2026-04-16 19:32 | 41.04264 | 28.33442 | 3162 ft | 86 kts | 103° |
| 2026-04-16 19:32 | 41.04114 | 28.34203 | 3176 ft | 87 kts | 101° |
| 2026-04-16 19:32 | 41.03960 | 28.34977 | 3155 ft | 88 kts | 102° |
| 2026-04-16 19:32 | 41.03793 | 28.35753 | 3164 ft | 86 kts | 101° |
| 2026-04-16 19:33 | 41.03636 | 28.36522 | 3173 ft | 87 kts | 100° |
| 2026-04-16 19:33 | 41.03499 | 28.37297 | 3179 ft | 87 kts | 100° |
| 2026-04-16 19:33 | 41.03347 | 28.38079 | 3193 ft | 87 kts | 102° |
| 2026-04-16 19:33 | 41.03184 | 28.38843 | 3231 ft | 85 kts | 99° |
| 2026-04-16 19:34 | 41.03055 | 28.39608 | 3266 ft | 84 kts | 100° |
| 2026-04-16 19:34 | 41.02879 | 28.40361 | 3275 ft | 87 kts | 106° |
| 2026-04-16 19:34 | 41.02657 | 28.41105 | 3270 ft | 89 kts | 108° |
| 2026-04-16 19:34 | 41.02401 | 28.41855 | 3287 ft | 87 kts | 110° |
| 2026-04-16 19:35 | 41.02135 | 28.42586 | 3279 ft | 88 kts | 114° |
| 2026-04-16 19:35 | 41.01850 | 28.43287 | 3328 ft | 85 kts | 114° |
| 2026-04-16 19:35 | 41.01553 | 28.43977 | 3355 ft | 86 kts | 114° |
| 2026-04-16 19:35 | 41.01250 | 28.44638 | 3408 ft | 84 kts | 117° |
| 2026-04-16 19:36 | 41.00917 | 28.45297 | 3439 ft | 87 kts | 117° |
| 2026-04-16 19:36 | 41.00609 | 28.45967 | 3283 ft | 76 kts | 118° |
| 2026-04-16 19:36 | 41.00325 | 28.46449 | 3131 ft | 62 kts | 124° |